sensor_id;sensor_type;location;lat;lon;timestamp;pressure;altitude;pressure_sealevel;temperature;humidity
57904;BME280;43720;47.462;19.030;2023-04-24T03:50:18;99488.16;;;12.90;89.53
57904;BME280;43720;47.462;19.030;2023-04-24T03:53:22;99486.47;;;12.83;90.78
57904;BME280;43720;47.462;19.030;2023-04-24T03:56:24;99474.09;;;12.97;89.60
57904;BME280;43720;47.462;19.030;2023-04-24T03:59:27;99469.59;;;13.10;87.91
57904;BME280;43720;47.462;19.030;2023-04-24T04:02:32;99471.06;;;13.39;87.73
57904;BME280;43720;47.462;19.030;2023-04-24T04:05:35;99461.38;;;13.44;85.98
57904;BME280;43720;47.462;19.030;2023-04-24T04:08:37;99460.72;;;13.24;87.80
57904;BME280;43720;47.462;19.030;2023-04-24T04:11:39;99464.22;;;13.24;87.45
57904;BME280;43720;47.462;19.030;2023-04-24T04:14:42;99461.47;;;13.35;86.25
57904;BME280;43720;47.462;19.030;2023-04-24T04:17:44;99464.12;;;13.32;86.39
57904;BME280;43720;47.462;19.030;2023-04-24T04:20:48;99488.69;;;13.26;84.34
57904;BME280;43720;47.462;19.030;2023-04-24T04:23:50;99488.81;;;13.14;86.93
57904;BME280;43720;47.462;19.030;2023-04-24T04:26:53;99485.38;;;13.04;87.99
57904;BME280;43720;47.462;19.030;2023-04-24T04:30:01;99474.75;;;13.21;89.64
57904;BME280;43720;47.462;19.030;2023-04-24T04:33:07;99468.41;;;13.42;86.77
57904;BME280;43720;47.462;19.030;2023-04-24T04:36:11;99457.81;;;13.50;86.60
57904;BME280;43720;47.462;19.030;2023-04-24T04:39:15;99467.37;;;13.55;85.26
57904;BME280;43720;47.462;19.030;2023-04-24T04:42:19;99486.78;;;13.42;85.46
57904;BME280;43720;47.462;19.030;2023-04-24T04:45:21;99478.16;;;13.31;83.83
57904;BME280;43720;47.462;19.030;2023-04-24T04:48:25;99477.25;;;13.33;85.37
57904;BME280;43720;47.462;19.030;2023-04-24T04:51:29;99465.97;;;13.24;86.05
57904;BME280;43720;47.462;19.030;2023-04-24T04:54:32;99464.09;;;13.35;88.19
57904;BME280;43720;47.462;19.030;2023-04-24T04:57:34;99454.28;;;13.51;84.62
57904;BME280;43720;47.462;19.030;2023-04-24T05:00:38;99464.91;;;13.41;85.82
57904;BME280;43720;47.462;19.030;2023-04-24T05:03:45;99463.22;;;13.37;86.02
57904;BME280;43720;47.462;19.030;2023-04-24T05:06:48;99451.75;;;13.43;87.44
57904;BME280;43720;47.462;19.030;2023-04-24T05:09:50;99464.00;;;13.42;83.66
57904;BME280;43720;47.462;19.030;2023-04-24T05:12:55;99456.69;;;13.69;81.70
57904;BME280;43720;47.462;19.030;2023-04-24T05:15:57;99455.66;;;13.82;80.41
57904;BME280;43720;47.462;19.030;2023-04-24T05:19:00;99453.13;;;13.73;80.20
57904;BME280;43720;47.462;19.030;2023-04-24T05:22:03;99449.78;;;13.63;81.24
57904;BME280;43720;47.462;19.030;2023-04-24T05:25:07;99455.91;;;13.61;84.42
57904;BME280;43720;47.462;19.030;2023-04-24T05:28:10;99459.19;;;13.78;81.91
57904;BME280;43720;47.462;19.030;2023-04-24T05:31:13;99461.88;;;13.74;82.06
57904;BME280;43720;47.462;19.030;2023-04-24T05:34:15;99461.13;;;13.62;81.99
57904;BME280;43720;47.462;19.030;2023-04-24T05:37:19;99463.69;;;13.68;84.37
57904;BME280;43720;47.462;19.030;2023-04-24T05:40:21;99463.66;;;13.70;84.58
57904;BME280;43720;47.462;19.030;2023-04-24T05:43:23;99461.00;;;13.75;82.70
57904;BME280;43720;47.462;19.030;2023-04-24T05:46:26;99467.22;;;13.66;82.81
57904;BME280;43720;47.462;19.030;2023-04-24T05:49:30;99463.56;;;13.78;82.21
57904;BME280;43720;47.462;19.030;2023-04-24T05:52:32;99466.09;;;13.85;82.79
57904;BME280;43720;47.462;19.030;2023-04-24T05:55:36;99468.56;;;13.96;79.99
57904;BME280;43720;47.462;19.030;2023-04-24T05:58:38;99465.91;;;13.99;81.51
57904;BME280;43720;47.462;19.030;2023-04-24T06:01:43;99465.47;;;14.28;81.30
57904;BME280;43720;47.462;19.030;2023-04-24T06:04:47;99467.81;;;14.50;77.55
57904;BME280;43720;47.462;19.030;2023-04-24T06:07:50;99465.19;;;14.47;77.95
57904;BME280;43720;47.462;19.030;2023-04-24T06:10:53;99472.19;;;14.48;79.39
57904;BME280;43720;47.462;19.030;2023-04-24T06:13:55;99477.56;;;14.40;78.27
57904;BME280;43720;47.462;19.030;2023-04-24T06:17:01;99481.13;;;14.36;80.40
57904;BME280;43720;47.462;19.030;2023-04-24T06:20:05;99479.34;;;14.38;81.40
57904;BME280;43720;47.462;19.030;2023-04-24T06:23:08;99483.56;;;14.51;78.07
57904;BME280;43720;47.462;19.030;2023-04-24T06:26:11;99478.09;;;14.63;77.98
57904;BME280;43720;47.462;19.030;2023-04-24T06:29:13;99484.16;;;14.68;78.58
57904;BME280;43720;47.462;19.030;2023-04-24T06:32:15;99486.84;;;14.65;79.74
57904;BME280;43720;47.462;19.030;2023-04-24T06:35:18;99483.75;;;14.36;82.86
57904;BME280;43720;47.462;19.030;2023-04-24T06:38:20;99475.09;;;14.31;86.41
57904;BME280;43720;47.462;19.030;2023-04-24T06:41:24;99479.41;;;14.35;86.35
57904;BME280;43720;47.462;19.030;2023-04-24T06:44:29;99477.75;;;14.28;90.14
57904;BME280;43720;47.462;19.030;2023-04-24T06:47:31;99485.41;;;14.43;88.45
57904;BME280;43720;47.462;19.030;2023-04-24T06:50:34;99485.25;;;14.55;86.39
57904;BME280;43720;47.462;19.030;2023-04-24T06:53:36;99474.34;;;14.80;83.01
57904;BME280;43720;47.462;19.030;2023-04-24T06:56:39;99473.56;;;14.73;85.46
57904;BME280;43720;47.462;19.030;2023-04-24T06:59:42;99466.34;;;14.83;81.89
57904;BME280;43720;47.462;19.030;2023-04-24T07:02:44;99460.87;;;14.97;83.34
57904;BME280;43720;47.462;19.030;2023-04-24T07:05:48;99465.22;;;14.99;81.11
57904;BME280;43720;47.462;19.030;2023-04-24T07:08:51;99468.00;;;14.90;82.90
57904;BME280;43720;47.462;19.030;2023-04-24T07:11:53;99472.12;;;15.05;85.19
57904;BME280;43720;47.462;19.030;2023-04-24T07:14:56;99460.69;;;15.06;82.26
57904;BME280;43720;47.462;19.030;2023-04-24T07:17:58;99473.03;;;15.04;82.12
57904;BME280;43720;47.462;19.030;2023-04-24T07:21:01;99475.59;;;15.05;82.77
57904;BME280;43720;47.462;19.030;2023-04-24T07:24:03;99486.03;;;15.11;82.01
57904;BME280;43720;47.462;19.030;2023-04-24T07:27:05;99481.75;;;15.06;81.55
57904;BME280;43720;47.462;19.030;2023-04-24T07:30:08;99476.66;;;14.97;82.98
57904;BME280;43720;47.462;19.030;2023-04-24T07:33:10;99464.16;;;15.08;82.87
57904;BME280;43720;47.462;19.030;2023-04-24T07:36:15;99459.34;;;15.31;82.19
57904;BME280;43720;47.462;19.030;2023-04-24T07:39:20;99464.44;;;15.39;82.33
57904;BME280;43720;47.462;19.030;2023-04-24T07:42:23;99459.87;;;15.47;80.11
57904;BME280;43720;47.462;19.030;2023-04-24T07:45:25;99461.78;;;15.40;81.56
57904;BME280;43720;47.462;19.030;2023-04-24T07:48:30;99463.38;;;15.49;83.20
57904;BME280;43720;47.462;19.030;2023-04-24T07:51:32;99459.63;;;15.59;81.60
57904;BME280;43720;47.462;19.030;2023-04-24T07:54:40;99461.34;;;15.62;81.06
57904;BME280;43720;47.462;19.030;2023-04-24T07:57:43;99469.06;;;15.73;80.79
57904;BME280;43720;47.462;19.030;2023-04-24T08:00:46;99477.63;;;15.84;79.10
57904;BME280;43720;47.462;19.030;2023-04-24T08:03:49;99472.72;;;15.65;80.38
57904;BME280;43720;47.462;19.030;2023-04-24T08:06:51;99472.69;;;15.67;81.49
57904;BME280;43720;47.462;19.030;2023-04-24T08:09:54;99468.13;;;15.75;82.84
57904;BME280;43720;47.462;19.030;2023-04-24T08:12:56;99456.25;;;15.96;82.19
57904;BME280;43720;47.462;19.030;2023-04-24T08:15:59;99455.22;;;16.03;78.36
57904;BME280;43720;47.462;19.030;2023-04-24T08:19:01;99447.44;;;15.97;78.73
57904;BME280;43720;47.462;19.030;2023-04-24T08:22:03;99452.06;;;15.87;80.15
57904;BME280;43720;47.462;19.030;2023-04-24T08:25:06;99456.09;;;16.02;80.61
57904;BME280;43720;47.462;19.030;2023-04-24T08:28:09;99454.66;;;15.89;79.36
57904;BME280;43720;47.462;19.030;2023-04-24T08:31:12;99453.38;;;16.07;79.45
57904;BME280;43720;47.462;19.030;2023-04-24T08:34:15;99451.84;;;15.97;79.27
57904;BME280;43720;47.462;19.030;2023-04-24T08:37:17;99451.44;;;16.13;81.58
57904;BME280;43720;47.462;19.030;2023-04-24T08:40:23;99454.66;;;16.28;78.97
57904;BME280;43720;47.462;19.030;2023-04-24T08:43:29;99451.78;;;16.37;77.48
57904;BME280;43720;47.462;19.030;2023-04-24T08:46:33;99447.34;;;16.39;78.18
57904;BME280;43720;47.462;19.030;2023-04-24T08:49:36;99452.44;;;16.47;78.24
57904;BME280;43720;47.462;19.030;2023-04-24T08:52:42;99447.00;;;16.53;75.45
57904;BME280;43720;47.462;19.030;2023-04-24T08:55:47;99455.28;;;16.75;76.56
57904;BME280;43720;47.462;19.030;2023-04-24T08:58:53;99447.56;;;17.01;75.70
57904;BME280;43720;47.462;19.030;2023-04-24T09:01:56;99452.22;;;17.24;73.93
57904;BME280;43720;47.462;19.030;2023-04-24T09:04:59;99446.41;;;17.11;73.36
57904;BME280;43720;47.462;19.030;2023-04-24T09:08:04;99439.44;;;17.07;73.59
57904;BME280;43720;47.462;19.030;2023-04-24T09:11:07;99435.88;;;17.10;73.20
57904;BME280;43720;47.462;19.030;2023-04-24T09:14:10;99442.00;;;17.12;74.20
57904;BME280;43720;47.462;19.030;2023-04-24T09:17:13;99428.31;;;17.29;72.55
57904;BME280;43720;47.462;19.030;2023-04-24T09:20:19;99437.66;;;17.41;71.07
57904;BME280;43720;47.462;19.030;2023-04-24T09:23:22;99426.62;;;17.56;70.04
57904;BME280;43720;47.462;19.030;2023-04-24T09:26:25;99420.63;;;17.82;70.22
57904;BME280;43720;47.462;19.030;2023-04-24T09:29:29;99432.78;;;17.88;69.87
57904;BME280;43720;47.462;19.030;2023-04-24T09:32:31;99424.84;;;17.88;68.08
57904;BME280;43720;47.462;19.030;2023-04-24T09:35:34;99415.19;;;17.87;68.02
57904;BME280;43720;47.462;19.030;2023-04-24T09:38:38;99413.22;;;17.93;67.85
57904;BME280;43720;47.462;19.030;2023-04-24T09:41:45;99416.25;;;18.09;66.68
57904;BME280;43720;47.462;19.030;2023-04-24T09:44:50;99407.25;;;18.41;66.97
57904;BME280;43720;47.462;19.030;2023-04-24T09:48:09;99398.25;;;18.73;65.89
57904;BME280;43720;47.462;19.030;2023-04-24T09:51:12;99403.16;;;18.86;64.10
57904;BME280;43720;47.462;19.030;2023-04-24T09:54:16;99398.72;;;18.86;64.27
57904;BME280;43720;47.462;19.030;2023-04-24T09:57:19;99387.72;;;18.72;64.36
57904;BME280;43720;47.462;19.030;2023-04-24T10:00:25;99384.22;;;18.71;63.65
57904;BME280;43720;47.462;19.030;2023-04-24T10:03:33;99398.31;;;18.72;65.28
57904;BME280;43720;47.462;19.030;2023-04-24T10:06:36;99392.66;;;18.83;63.02
57904;BME280;43720;47.462;19.030;2023-04-24T10:09:38;99386.94;;;18.68;61.11
57904;BME280;43720;47.462;19.030;2023-04-24T10:12:42;99402.22;;;18.60;60.25
57904;BME280;43720;47.462;19.030;2023-04-24T10:15:47;99396.25;;;18.53;61.86
57904;BME280;43720;47.462;19.030;2023-04-24T10:18:51;99390.69;;;18.61;61.99
57904;BME280;43720;47.462;19.030;2023-04-24T10:21:54;99386.06;;;18.68;58.98
57904;BME280;43720;47.462;19.030;2023-04-24T10:24:58;99386.00;;;18.69;60.38
57904;BME280;43720;47.462;19.030;2023-04-24T10:28:02;99387.88;;;18.66;60.33
57904;BME280;43720;47.462;19.030;2023-04-24T10:31:04;99389.34;;;18.76;60.08
57904;BME280;43720;47.462;19.030;2023-04-24T10:34:09;99392.28;;;18.67;59.63
57904;BME280;43720;47.462;19.030;2023-04-24T10:37:12;99393.03;;;18.72;61.55
57904;BME280;43720;47.462;19.030;2023-04-24T10:40:18;99386.69;;;18.76;62.39
57904;BME280;43720;47.462;19.030;2023-04-24T10:43:21;99384.97;;;18.75;62.62
57904;BME280;43720;47.462;19.030;2023-04-24T10:46:28;99388.50;;;18.75;62.86
57904;BME280;43720;47.462;19.030;2023-04-24T10:49:31;99385.50;;;18.85;62.01
57904;BME280;43720;47.462;19.030;2023-04-24T10:53:07;99381.00;;;19.12;62.32
57904;BME280;43720;47.462;19.030;2023-04-24T10:56:10;99385.09;;;19.20;61.80
57904;BME280;43720;47.462;19.030;2023-04-24T10:59:24;99380.69;;;19.21;59.92
57904;BME280;43720;47.462;19.030;2023-04-24T11:02:36;99372.12;;;19.13;59.31
57904;BME280;43720;47.462;19.030;2023-04-24T11:05:51;99369.78;;;19.05;60.59
57904;BME280;43720;47.462;19.030;2023-04-24T11:09:02;99361.22;;;19.22;61.25
57904;BME280;43720;47.462;19.030;2023-04-24T11:12:10;99356.94;;;19.41;59.06
57904;BME280;43720;47.462;19.030;2023-04-24T11:15:13;99358.34;;;19.75;59.69
57904;BME280;43720;47.462;19.030;2023-04-24T11:18:16;99353.19;;;19.92;57.06
57904;BME280;43720;47.462;19.030;2023-04-24T11:21:18;99351.38;;;19.94;56.36
57904;BME280;43720;47.462;19.030;2023-04-24T11:27:42;99353.75;;;20.00;58.03
57904;BME280;43720;47.462;19.030;2023-04-24T11:30:44;99355.38;;;19.83;57.77
57904;BME280;43720;47.462;19.030;2023-04-24T11:33:47;99347.19;;;19.65;59.78
57904;BME280;43720;47.462;19.030;2023-04-24T11:36:49;99341.91;;;19.65;58.83
57904;BME280;43720;47.462;19.030;2023-04-24T11:39:53;99340.22;;;19.63;59.42
57904;BME280;43720;47.462;19.030;2023-04-24T11:42:59;99338.09;;;19.94;59.38
57904;BME280;43720;47.462;19.030;2023-04-24T11:46:02;99337.63;;;20.49;57.08
57904;BME280;43720;47.462;19.030;2023-04-24T11:49:06;99332.34;;;20.88;57.08
57904;BME280;43720;47.462;19.030;2023-04-24T11:52:09;99319.78;;;21.31;56.55
57904;BME280;43720;47.462;19.030;2023-04-24T11:58:21;99318.22;;;21.46;54.07
57904;BME280;43720;47.462;19.030;2023-04-24T12:01:24;99310.06;;;21.11;54.40
57904;BME280;43720;47.462;19.030;2023-04-24T12:04:38;99306.25;;;20.77;54.24
57904;BME280;43720;47.462;19.030;2023-04-24T12:07:42;99300.34;;;21.29;52.58
57904;BME280;43720;47.462;19.030;2023-04-24T12:10:51;99291.97;;;21.93;50.90
57904;BME280;43720;47.462;19.030;2023-04-24T12:13:53;99292.84;;;22.98;48.05
57904;BME280;43720;47.462;19.030;2023-04-24T12:16:55;99293.81;;;23.13;48.76
57904;BME280;43720;47.462;19.030;2023-04-24T12:20:01;99294.06;;;22.58;51.30
57904;BME280;43720;47.462;19.030;2023-04-24T12:23:04;99302.44;;;21.60;53.34
57904;BME280;43720;47.462;19.030;2023-04-24T12:26:06;99293.84;;;21.36;54.72
57904;BME280;43720;47.462;19.030;2023-04-24T12:29:09;99285.97;;;21.71;53.38
57904;BME280;43720;47.462;19.030;2023-04-24T12:32:17;99288.03;;;21.47;54.67
57904;BME280;43720;47.462;19.030;2023-04-24T12:35:22;99280.25;;;21.05;55.37
57904;BME280;43720;47.462;19.030;2023-04-24T12:38:45;99279.63;;;21.37;55.00
57904;BME280;43720;47.462;19.030;2023-04-24T12:41:57;99270.91;;;21.15;56.39
57904;BME280;43720;47.462;19.030;2023-04-24T12:45:03;99266.69;;;20.71;56.85
57904;BME280;43720;47.462;19.030;2023-04-24T12:48:06;99271.00;;;20.74;55.71
57904;BME280;43720;47.462;19.030;2023-04-24T12:51:08;99276.56;;;20.27;57.43
57904;BME280;43720;47.462;19.030;2023-04-24T12:54:10;99267.88;;;20.03;58.09
57904;BME280;43720;47.462;19.030;2023-04-24T12:57:13;99265.75;;;19.69;60.78
57904;BME280;43720;47.462;19.030;2023-04-24T13:00:16;99266.56;;;19.47;62.08
57904;BME280;43720;47.462;19.030;2023-04-24T13:03:21;99260.63;;;19.19;63.12
57904;BME280;43720;47.462;19.030;2023-04-24T13:06:24;99267.34;;;19.05;65.44
57904;BME280;43720;47.462;19.030;2023-04-24T13:09:28;99256.47;;;18.90;64.54
57904;BME280;43720;47.462;19.030;2023-04-24T13:12:30;99265.16;;;18.68;66.04
57904;BME280;43720;47.462;19.030;2023-04-24T13:15:32;99263.53;;;18.64;66.96
57904;BME280;43720;47.462;19.030;2023-04-24T13:18:35;99262.84;;;18.59;70.39
57904;BME280;43720;47.462;19.030;2023-04-24T13:21:37;99267.38;;;18.55;72.67
57904;BME280;43720;47.462;19.030;2023-04-24T13:24:40;99266.31;;;18.36;71.73
57904;BME280;43720;47.462;19.030;2023-04-24T13:27:43;99256.56;;;18.12;71.81
57904;BME280;43720;47.462;19.030;2023-04-24T13:30:45;99254.56;;;17.93;72.25
57904;BME280;43720;47.462;19.030;2023-04-24T13:33:47;99259.53;;;17.76;72.34
57904;BME280;43720;47.462;19.030;2023-04-24T13:36:51;99252.22;;;17.56;73.38
57904;BME280;43720;47.462;19.030;2023-04-24T13:39:54;99266.84;;;17.40;73.58
57904;BME280;43720;47.462;19.030;2023-04-24T13:42:57;99265.53;;;17.25;74.07
57904;BME280;43720;47.462;19.030;2023-04-24T13:45:59;99258.69;;;17.18;74.74
57904;BME280;43720;47.462;19.030;2023-04-24T13:49:04;99265.69;;;17.19;75.50
57904;BME280;43720;47.462;19.030;2023-04-24T13:52:06;99272.09;;;17.11;75.49
57904;BME280;43720;47.462;19.030;2023-04-24T13:55:09;99284.47;;;17.09;76.84
57904;BME280;43720;47.462;19.030;2023-04-24T13:58:11;99282.28;;;16.94;74.04
57904;BME280;43720;47.462;19.030;2023-04-24T14:01:14;99294.50;;;16.66;78.34
57904;BME280;43720;47.462;19.030;2023-04-24T14:04:17;99300.34;;;16.44;84.16
57904;BME280;43720;47.462;19.030;2023-04-24T14:07:20;99303.12;;;16.05;93.49
57904;BME280;43720;47.462;19.030;2023-04-24T14:10:23;99314.53;;;15.70;99.74
57904;BME280;43720;47.462;19.030;2023-04-24T14:13:25;99313.31;;;15.45;100.00
57904;BME280;43720;47.462;19.030;2023-04-24T14:16:28;99308.97;;;15.03;100.00
57904;BME280;43720;47.462;19.030;2023-04-24T14:19:30;99300.91;;;14.67;100.00
57904;BME280;43720;47.462;19.030;2023-04-24T14:22:33;99303.84;;;14.51;100.00
57904;BME280;43720;47.462;19.030;2023-04-24T14:25:35;99309.22;;;14.43;100.00
57904;BME280;43720;47.462;19.030;2023-04-24T14:28:37;99303.81;;;14.54;100.00
57904;BME280;43720;47.462;19.030;2023-04-24T14:31:40;99300.91;;;14.67;100.00
57904;BME280;43720;47.462;19.030;2023-04-24T14:34:43;99296.38;;;14.74;100.00
57904;BME280;43720;47.462;19.030;2023-04-24T14:37:45;99297.63;;;14.98;100.00
57904;BME280;43720;47.462;19.030;2023-04-24T14:40:48;99300.47;;;15.31;100.00
57904;BME280;43720;47.462;19.030;2023-04-24T14:43:53;99302.25;;;15.30;100.00
57904;BME280;43720;47.462;19.030;2023-04-24T14:46:55;99298.97;;;15.17;100.00
57904;BME280;43720;47.462;19.030;2023-04-24T14:49:58;99293.81;;;15.13;100.00
57904;BME280;43720;47.462;19.030;2023-04-24T14:53:00;99306.66;;;15.30;100.00
57904;BME280;43720;47.462;19.030;2023-04-24T14:56:04;99305.16;;;15.18;100.00
57904;BME280;43720;47.462;19.030;2023-04-24T14:59:06;99312.25;;;15.14;100.00
57904;BME280;43720;47.462;19.030;2023-04-24T15:02:09;99308.50;;;15.25;100.00
57904;BME280;43720;47.462;19.030;2023-04-24T15:05:18;99303.84;;;15.37;100.00
57904;BME280;43720;47.462;19.030;2023-04-24T15:08:21;99309.75;;;15.47;100.00
57904;BME280;43720;47.462;19.030;2023-04-24T15:11:23;99302.13;;;15.35;100.00
57904;BME280;43720;47.462;19.030;2023-04-24T15:14:25;99302.19;;;15.32;100.00
57904;BME280;43720;47.462;19.030;2023-04-24T15:17:28;99306.47;;;15.37;100.00
57904;BME280;43720;47.462;19.030;2023-04-24T15:20:30;99306.03;;;15.57;100.00
57904;BME280;43720;47.462;19.030;2023-04-24T15:23:33;99298.06;;;15.59;100.00
57904;BME280;43720;47.462;19.030;2023-04-24T15:26:35;99297.28;;;15.55;100.00
57904;BME280;43720;47.462;19.030;2023-04-24T15:29:38;99298.19;;;15.54;100.00
57904;BME280;43720;47.462;19.030;2023-04-24T15:32:40;99295.66;;;15.48;100.00
